If you wish to contribute or participate in the discussions about articles you are invited to join SKYbrary as a registered user

 Actions

Uberlândia Airport

From SKYbrary Wiki

SBUL
Airport
ICAO: SBUL – IATA: UDI
Summary
Name Uberlândia Airport
Region South America and Caribbean
Territory Brazil BR.gif
Location Uberlândia, Minas Gerais
Serving Uberlândia
Elevation 943.051 m
3,094 ft943.051 m
Coordinates 18° 53' 1.00" S, 48° 13' 31.01" W
Runways
Designator Length Width Surface ROPS
4/22 1950 m6,397.638 ft
45 m147.638 ft
ASP yes/yes


METAR
Observation SBUL 172200Z 32002KT 9999 FEW049 BKN080 30/11 Q1016
Station Uberlandia
Date/Time 17 October 2019 22:00:00
Wind direction 320°
Wind speed 02 kts
Lowest cloud amount few clouds
Temperature 30°C
Dew point 11°C
Humidity 30%
QNH 1016 hPa
Weather condition n/a

Uberlândia–Ten. Cel. Av. César Bombonato Airport is the airport serving Uberlândia, Brazil.

Climatology

Humid subtropical climate (Köppen climate classification Cwb)

Maps

Terrain

Loading map...

Airport Layout

Loading map...


Accidents & Serious Incidents at or in vicinity of SBUL

None on SKYbrary